createdAt,value
2018-11-04T00:00:45.418Z,30.33
2018-11-04T00:03:12.428Z,27.43
2018-11-04T00:05:39.437Z,31.37
2018-11-04T00:08:06.484Z,29.80
2018-11-04T00:10:34.162Z,34.67
2018-11-04T00:13:02.017Z,34.27
2018-11-04T00:15:29.221Z,26.10
2018-11-04T00:17:56.204Z,28.40
2018-11-04T00:20:24.239Z,29.70
2018-11-04T00:22:52.405Z,28.60
2018-11-04T00:25:19.458Z,30.63
2018-11-04T00:27:46.837Z,26.97
2018-11-04T00:30:14.776Z,34.83
2018-11-04T00:32:42.216Z,25.83
2018-11-04T00:35:09.270Z,30.10
2018-11-04T00:37:36.286Z,30.83
2018-11-04T00:40:04.148Z,30.40
2018-11-04T00:42:32.343Z,35.20
2018-11-04T00:44:59.557Z,34.13
2018-11-04T00:47:26.611Z,29.40
2018-11-04T00:49:53.565Z,26.63
2018-11-04T00:52:21.102Z,26.10
2018-11-04T00:54:48.804Z,24.47
2018-11-04T00:57:15.756Z,29.07
2018-11-04T00:59:42.718Z,25.93
2018-11-04T01:02:09.729Z,25.43
2018-11-04T01:04:36.617Z,31.27
2018-11-04T01:07:03.865Z,25.10
2018-11-04T01:09:31.304Z,27.03
2018-11-04T01:11:58.453Z,29.20
2018-11-04T01:14:25.648Z,27.23
2018-11-04T01:16:52.592Z,28.17
2018-11-04T01:19:19.702Z,25.10
2018-11-04T01:21:47.079Z,33.57
2018-11-04T01:24:14.181Z,26.10
2018-11-04T01:26:41.130Z,33.37
2018-11-04T01:29:08.139Z,25.63
2018-11-04T01:31:35.116Z,29.10
2018-11-04T01:34:02.716Z,26.13
2018-11-04T01:36:29.772Z,29.90
2018-11-04T01:38:56.742Z,30.00
2018-11-04T01:41:23.728Z,25.53
2018-11-04T01:43:50.666Z,29.20
2018-11-04T01:46:17.608Z,27.13
2018-11-04T01:48:44.567Z,27.17
2018-11-04T01:51:11.521Z,28.00
2018-11-04T01:53:38.483Z,28.57
2018-11-04T01:56:05.435Z,28.03
2018-11-04T01:58:32.433Z,28.47
2018-11-04T02:00:59.368Z,33.53
2018-11-04T02:03:27.389Z,28.27
2018-11-04T02:05:54.876Z,27.27
2018-11-04T02:08:21.898Z,27.63
2018-11-04T02:10:48.834Z,28.03
2018-11-04T02:13:15.782Z,32.63
2018-11-04T02:15:42.772Z,31.37
2018-11-04T02:18:09.674Z,28.43
2018-11-04T02:20:36.608Z,28.23
2018-11-04T02:23:03.554Z,34.20
2018-11-04T02:25:30.480Z,33.60
2018-11-04T02:27:57.432Z,31.27
2018-11-04T02:30:24.379Z,31.90
2018-11-04T02:32:51.338Z,31.03
2018-11-04T02:35:18.309Z,31.77
2018-11-04T02:37:45.244Z,33.67
2018-11-04T02:40:12.667Z,29.20
2018-11-04T02:42:39.591Z,29.07
2018-11-04T02:45:06.792Z,30.33
2018-11-04T02:47:33.957Z,28.57
2018-11-04T02:50:00.924Z,31.27
2018-11-04T02:52:27.884Z,33.37
2018-11-04T02:54:54.820Z,33.43
2018-11-04T02:57:22.098Z,30.97
2018-11-04T02:59:49.069Z,32.27
2018-11-04T03:02:16.193Z,34.97
2018-11-04T03:04:43.176Z,32.00
2018-11-04T03:07:10.161Z,32.83
2018-11-04T03:09:37.134Z,32.37
2018-11-04T03:12:05.028Z,35.33
2018-11-04T03:14:32.376Z,33.47
2018-11-04T03:16:59.303Z,33.17
2018-11-04T03:19:26.291Z,33.43
2018-11-04T03:21:53.260Z,31.27
2018-11-04T03:24:20.253Z,33.43
2018-11-04T03:26:47.339Z,33.70
2018-11-04T03:29:14.372Z,39.77
2018-11-04T03:31:41.303Z,35.10
2018-11-04T03:34:09.066Z,32.70
2018-11-04T03:36:36.029Z,28.90
2018-11-04T03:39:04.396Z,31.30
2018-11-04T03:41:31.315Z,31.67
2018-11-04T03:43:58.284Z,34.30
2018-11-04T03:46:25.239Z,34.00
2018-11-04T03:48:52.194Z,37.03
2018-11-04T03:51:19.184Z,34.07
2018-11-04T03:53:46.164Z,32.70
2018-11-04T03:56:13.299Z,33.07
2018-11-04T03:58:40.266Z,32.00
2018-11-04T04:01:07.206Z,35.67
2018-11-04T04:03:34.159Z,30.90
2018-11-04T04:06:01.100Z,31.83
2018-11-04T04:08:28.056Z,35.90
2018-11-04T04:10:54.969Z,38.37
2018-11-04T04:13:21.961Z,33.73
2018-11-04T04:15:48.922Z,32.97
2018-11-04T04:26:56.536Z,33.90
2018-11-04T04:29:23.480Z,34.63
2018-11-04T04:31:50.507Z,33.47
2018-11-04T04:34:18.157Z,37.13
2018-11-04T04:36:45.159Z,37.33
2018-11-04T04:39:12.184Z,35.90
2018-11-04T04:41:39.231Z,39.60
2018-11-04T04:44:06.327Z,37.80
2018-11-04T04:46:33.326Z,37.43
2018-11-04T04:49:00.309Z,40.70
2018-11-04T04:51:27.249Z,40.63
2018-11-04T04:53:54.194Z,44.73
2018-11-04T04:56:21.142Z,41.10
2018-11-04T04:58:48.076Z,38.70
2018-11-04T05:01:15.028Z,37.00
2018-11-04T05:03:42.379Z,41.70
2018-11-04T05:06:09.304Z,36.93
2018-11-04T05:08:36.259Z,40.03
2018-11-04T05:11:03.331Z,36.53
2018-11-04T05:13:30.253Z,38.07
2018-11-04T05:15:57.261Z,37.03
2018-11-04T05:18:24.211Z,35.87
2018-11-04T05:20:51.141Z,38.03
2018-11-04T05:23:18.139Z,34.77
2018-11-04T05:25:45.171Z,38.60
2018-11-04T05:28:12.119Z,36.70
2018-11-04T05:30:39.145Z,45.60
2018-11-04T05:33:06.202Z,39.83
2018-11-04T05:35:33.158Z,36.97
2018-11-04T05:38:00.128Z,40.33
2018-11-04T05:40:27.154Z,35.10
2018-11-04T05:42:54.816Z,40.07
2018-11-04T05:45:21.908Z,38.70
2018-11-04T05:47:49.102Z,38.40
2018-11-04T05:50:16.070Z,38.47
2018-11-04T05:52:43.003Z,43.10
2018-11-04T05:55:09.934Z,38.27
2018-11-04T05:57:36.961Z,41.57
2018-11-04T06:00:05.278Z,41.73
2018-11-04T06:02:32.195Z,39.27
2018-11-04T06:04:59.813Z,37.23
2018-11-04T06:07:26.971Z,51.03
2018-11-04T06:09:53.985Z,40.17
2018-11-04T06:12:22.177Z,45.27
2018-11-04T06:14:49.285Z,41.43
2018-11-04T06:17:16.298Z,43.93
2018-11-04T06:19:43.400Z,44.27
2018-11-04T06:22:10.484Z,46.93
2018-11-04T06:24:37.564Z,56.27
2018-11-04T06:27:04.778Z,48.80
2018-11-04T06:29:31.852Z,51.03
2018-11-04T06:31:58.868Z,42.27
2018-11-04T06:34:26.059Z,39.87
2018-11-04T06:36:53.046Z,42.60
2018-11-04T06:39:20.121Z,40.63
2018-11-04T06:41:47.077Z,47.03
2018-11-04T06:44:14.045Z,39.47
2018-11-04T06:46:41.157Z,44.47
2018-11-04T06:49:08.087Z,42.17
2018-11-04T06:51:35.817Z,41.50
2018-11-04T06:54:02.937Z,45.67
2018-11-04T06:56:30.114Z,44.10
2018-11-04T06:58:57.193Z,41.00
2018-11-04T07:01:24.305Z,44.60
2018-11-04T07:04:02.994Z,44.87
2018-11-04T07:06:29.977Z,44.03
2018-11-04T07:08:57.125Z,42.13
2018-11-04T07:11:25.370Z,42.23
2018-11-04T07:13:52.802Z,41.57
2018-11-04T07:16:20.194Z,46.13
2018-11-04T07:18:47.744Z,44.80
2018-11-04T07:21:14.833Z,42.10
2018-11-04T07:23:41.808Z,45.00
2018-11-04T07:26:08.820Z,44.83
2018-11-04T07:28:35.885Z,44.30
2018-11-04T07:31:02.855Z,46.87
2018-11-04T07:33:29.855Z,48.40
2018-11-04T07:35:56.933Z,45.23
2018-11-04T07:38:23.888Z,45.23
2018-11-04T07:40:50.848Z,51.20
2018-11-04T07:43:17.870Z,44.03
2018-11-04T07:45:44.941Z,51.30
2018-11-04T07:48:11.911Z,47.00
2018-11-04T07:50:39.033Z,44.07
2018-11-04T07:53:05.911Z,48.43
2018-11-04T07:55:32.849Z,47.77
2018-11-04T07:57:59.834Z,56.80
2018-11-04T08:00:37.042Z,62.27
2018-11-04T08:03:04.155Z,51.40
2018-11-04T08:05:31.100Z,53.00
2018-11-04T08:07:58.088Z,53.77
2018-11-04T08:10:25.649Z,54.77
2018-11-04T08:12:52.813Z,54.33
2018-11-04T08:15:19.755Z,57.90
2018-11-04T08:17:47.056Z,55.47
2018-11-04T08:20:14.141Z,52.97
2018-11-04T08:22:41.093Z,56.77
2018-11-04T08:25:08.221Z,56.30
2018-11-04T08:27:35.244Z,62.27
2018-11-04T08:30:02.254Z,57.10
2018-11-04T08:32:29.211Z,59.53
2018-11-04T08:34:56.266Z,59.80
2018-11-04T08:37:23.613Z,60.13
2018-11-04T08:39:50.666Z,69.80
2018-11-04T08:42:17.572Z,57.97
2018-11-04T08:44:44.620Z,64.63
2018-11-04T08:50:12.800Z,61.43
2018-11-04T08:52:39.857Z,66.83
2018-11-04T08:55:07.548Z,62.03
2018-11-04T08:57:34.470Z,61.73
2018-11-04T09:00:01.484Z,72.60
2018-11-04T09:02:28.455Z,61.50
2018-11-04T09:04:56.087Z,64.80
2018-11-04T09:07:24.755Z,67.83
2018-11-04T09:09:51.747Z,71.03
2018-11-04T09:12:18.807Z,65.27
2018-11-04T09:14:45.797Z,63.27
2018-11-04T09:17:12.809Z,64.93
2018-11-04T09:19:39.824Z,72.93
2018-11-04T09:22:07.182Z,64.30
2018-11-04T09:24:34.123Z,77.50
2018-11-04T09:27:01.139Z,72.10
2018-11-04T09:29:28.143Z,71.17
2018-11-04T09:31:55.166Z,66.97
2018-11-04T09:34:22.284Z,70.97
2018-11-04T09:36:49.258Z,71.13
2018-11-04T09:39:20.537Z,78.27
2018-11-04T09:41:47.773Z,70.77
2018-11-04T09:44:19.702Z,73.50
2018-11-04T09:46:46.712Z,75.60
2018-11-04T09:49:14.123Z,63.47
2018-11-04T09:51:41.158Z,64.27
2018-11-04T09:54:08.177Z,69.60
2018-11-04T09:56:35.239Z,72.80
2018-11-04T09:59:02.156Z,66.33
2018-11-04T10:01:33.653Z,77.80
2018-11-04T10:04:00.916Z,75.27
2018-11-04T10:06:27.899Z,67.97
2018-11-04T10:08:54.863Z,73.73
2018-11-04T10:11:22.205Z,70.57
2018-11-04T10:13:49.232Z,71.00
2018-11-04T10:16:16.303Z,71.13
2018-11-04T10:18:43.292Z,70.20
2018-11-04T10:21:10.705Z,72.80
2018-11-04T10:23:37.736Z,71.20
2018-11-04T10:26:05.528Z,72.70
2018-11-04T10:28:32.694Z,75.03
2018-11-04T10:30:59.907Z,60.83
2018-11-04T10:33:32.215Z,67.80
2018-11-04T10:36:01.302Z,71.67
2018-11-04T10:38:31.708Z,85.17
2018-11-04T10:40:59.345Z,80.87
2018-11-04T10:43:27.201Z,73.13
2018-11-04T10:45:55.519Z,101.55
2018-11-04T10:48:22.754Z,77.90
2018-11-04T10:50:52.010Z,90.03
2018-11-04T10:53:19.239Z,77.37
2018-11-04T10:55:46.432Z,74.80
2018-11-04T10:58:13.355Z,66.47
2018-11-04T11:00:46.267Z,76.60
2018-11-04T11:03:15.084Z,85.37
2018-11-04T11:05:42.547Z,86.27
2018-11-04T11:08:12.912Z,81.17
2018-11-04T11:10:42.662Z,76.10
2018-11-04T11:13:10.944Z,93.00
2018-11-04T11:15:42.244Z,78.90
2018-11-04T11:18:12.345Z,75.10
2018-11-04T11:20:39.430Z,73.93
2018-11-04T11:23:06.588Z,76.27
2018-11-04T11:25:34.623Z,94.50
2018-11-04T11:28:02.911Z,83.83
2018-11-04T11:30:30.006Z,81.00
2018-11-04T11:32:58.567Z,76.83
2018-11-04T11:35:29.275Z,91.43
2018-11-04T11:37:56.530Z,86.30
2018-11-04T11:40:23.524Z,84.47
2018-11-04T11:42:50.730Z,101.13
2018-11-04T11:45:17.849Z,79.03
2018-11-04T11:47:44.982Z,80.23
2018-11-04T11:50:14.851Z,83.67
2018-11-04T11:52:49.470Z,92.53
2018-11-04T11:55:17.600Z,83.40
2018-11-04T11:57:44.658Z,90.87
2018-11-04T12:00:11.791Z,78.97
2018-11-04T12:02:39.717Z,77.10
2018-11-04T12:05:07.154Z,92.43
2018-11-04T12:07:34.153Z,103.80
2018-11-04T12:10:01.352Z,91.53
2018-11-04T12:12:28.382Z,91.23
2018-11-04T12:14:55.426Z,99.40
2018-11-04T12:17:22.650Z,82.47
2018-11-04T12:19:49.688Z,83.23
2018-11-04T12:22:16.631Z,129.30
2018-11-04T12:24:44.425Z,82.87
2018-11-04T12:27:11.356Z,96.40
2018-11-04T12:29:38.330Z,78.97
2018-11-04T12:32:05.313Z,88.53
2018-11-04T12:34:32.345Z,74.07
2018-11-04T12:36:59.372Z,86.97
2018-11-04T12:39:26.402Z,76.47
2018-11-04T12:41:53.390Z,89.90
2018-11-04T12:44:20.366Z,82.57
2018-11-04T12:46:47.470Z,86.13
2018-11-04T12:49:14.503Z,92.37
2018-11-04T12:51:41.447Z,79.40
2018-11-04T12:54:08.399Z,73.83
2018-11-04T12:56:35.397Z,100.43
2018-11-04T12:59:02.390Z,105.50
2018-11-04T13:01:29.381Z,88.70
2018-11-04T13:03:56.429Z,81.70
2018-11-04T13:06:24.229Z,74.70
2018-11-04T13:08:51.991Z,89.77
2018-11-04T13:11:19.019Z,74.73
2018-11-04T13:13:46.511Z,78.30
2018-11-04T13:16:13.594Z,78.57
2018-11-04T13:18:40.972Z,73.07
2018-11-04T13:21:08.040Z,76.37
2018-11-04T13:23:35.043Z,69.63
2018-11-04T13:26:02.119Z,81.70
2018-11-04T13:28:29.120Z,94.57
2018-11-04T13:30:56.083Z,76.67
2018-11-04T13:33:23.562Z,70.47
2018-11-04T13:35:50.584Z,78.10
2018-11-04T13:38:17.612Z,78.67
2018-11-04T13:40:44.678Z,75.43
2018-11-04T13:43:12.590Z,82.47
2018-11-04T13:45:39.552Z,76.77
2018-11-04T13:48:06.677Z,76.07
2018-11-04T13:50:35.124Z,81.97
2018-11-04T13:53:02.706Z,99.97
2018-11-04T13:55:33.739Z,93.30
2018-11-04T13:58:00.996Z,151.10
2018-11-04T14:00:28.007Z,105.63
2018-11-04T14:02:55.040Z,88.47
2018-11-04T14:05:22.660Z,85.80
2018-11-04T14:07:49.980Z,84.83
2018-11-04T14:10:17.093Z,81.83
2018-11-04T14:12:44.645Z,75.83
2018-11-04T14:15:12.461Z,84.83
2018-11-04T14:17:39.573Z,84.27
2018-11-04T14:20:08.113Z,82.17
2018-11-04T14:22:35.130Z,91.30
2018-11-04T14:25:02.195Z,79.47
2018-11-04T14:27:29.243Z,108.30
2018-11-04T14:29:56.303Z,85.67
2018-11-04T14:32:23.394Z,76.63
2018-11-04T14:34:50.409Z,87.57
2018-11-04T14:37:17.367Z,74.53
2018-11-04T14:39:44.329Z,87.93
2018-11-04T14:42:11.276Z,72.57
2018-11-04T14:44:38.223Z,77.07
2018-11-04T14:47:05.241Z,80.23
2018-11-04T14:49:32.233Z,79.50
2018-11-04T14:51:59.244Z,91.40
2018-11-04T14:54:26.219Z,94.77
2018-11-04T14:56:53.256Z,76.97
2018-11-04T14:59:20.286Z,75.53
2018-11-04T15:01:47.447Z,98.73
2018-11-04T15:04:14.312Z,78.93
2018-11-04T15:06:41.323Z,70.17
2018-11-04T15:09:08.356Z,80.17
2018-11-04T15:11:35.380Z,75.93
2018-11-04T15:14:02.795Z,81.10
2018-11-04T15:16:29.907Z,81.93
2018-11-04T15:18:56.944Z,70.57
2018-11-04T15:21:23.884Z,84.47
2018-11-04T15:23:50.891Z,72.40
2018-11-04T15:26:17.882Z,66.47
2018-11-04T15:28:44.944Z,76.10
2018-11-04T15:31:11.894Z,64.13
2018-11-04T15:33:38.941Z,77.50
2018-11-04T15:36:06.075Z,76.73
2018-11-04T15:38:33.102Z,76.87
2018-11-04T15:41:00.135Z,73.60
2018-11-04T15:43:27.109Z,72.73
2018-11-04T15:45:54.109Z,79.67
2018-11-04T15:48:21.130Z,82.03
2018-11-04T15:50:48.123Z,75.03
2018-11-04T15:53:15.221Z,80.53
2018-11-04T15:55:42.693Z,75.17
2018-11-04T15:58:09.671Z,71.53
2018-11-04T16:00:36.677Z,79.37
2018-11-04T16:03:04.044Z,81.17
2018-11-04T16:05:31.042Z,79.83
2018-11-04T16:07:58.056Z,82.20
2018-11-04T16:10:25.131Z,81.73
2018-11-04T16:12:52.073Z,80.57
2018-11-04T16:15:19.099Z,87.13
2018-11-04T16:17:47.332Z,84.50
2018-11-04T16:20:15.096Z,98.07
2018-11-04T16:22:42.717Z,88.83
2018-11-04T16:25:10.475Z,88.73
2018-11-04T16:27:37.497Z,86.27
2018-11-04T16:30:05.831Z,87.80
2018-11-04T16:32:32.835Z,90.03
2018-11-04T16:34:59.803Z,92.10
2018-11-04T16:37:26.891Z,89.10
2018-11-04T16:39:53.887Z,97.70
2018-11-04T16:42:20.869Z,100.87
2018-11-04T16:44:47.853Z,92.43
2018-11-04T16:47:14.783Z,83.10
2018-11-04T16:49:41.723Z,93.33
2018-11-04T16:52:09.261Z,96.70
2018-11-04T16:54:36.873Z,85.33
2018-11-04T16:57:04.399Z,96.87
2018-11-04T16:59:31.408Z,84.90
2018-11-04T17:01:58.594Z,104.30
2018-11-04T17:04:25.760Z,79.73
2018-11-04T17:06:52.546Z,92.17
2018-11-04T17:09:19.504Z,96.27
2018-11-04T17:11:46.519Z,88.03
2018-11-04T17:14:14.187Z,87.27
2018-11-04T17:16:41.229Z,87.57
2018-11-04T17:19:08.244Z,83.93
2018-11-04T17:21:35.534Z,82.50
2018-11-04T17:24:02.844Z,87.60
2018-11-04T17:26:29.987Z,103.73
2018-11-04T17:28:56.987Z,99.50
2018-11-04T17:31:24.055Z,104.73
2018-11-04T17:33:51.359Z,94.10
2018-11-04T17:36:18.440Z,84.13
2018-11-04T17:38:45.560Z,80.90
2018-11-04T17:41:12.808Z,81.67
2018-11-04T17:43:39.851Z,92.97
2018-11-04T17:46:07.417Z,81.47
2018-11-04T17:48:34.416Z,81.43
2018-11-04T17:51:01.379Z,89.13
2018-11-04T17:53:28.433Z,90.97
2018-11-04T17:55:55.438Z,91.33
2018-11-04T17:58:22.488Z,77.03
2018-11-04T18:00:49.458Z,92.57
2018-11-04T18:03:16.714Z,87.33
2018-11-04T18:05:43.694Z,79.33
2018-11-04T18:08:10.660Z,78.80
2018-11-04T18:10:39.045Z,81.77
2018-11-04T18:13:06.242Z,85.97
2018-11-04T18:15:33.349Z,81.97
2018-11-04T18:18:00.348Z,84.73
2018-11-04T18:20:27.350Z,78.87
2018-11-04T18:22:54.282Z,76.83
2018-11-04T18:25:22.255Z,85.10
2018-11-04T18:27:49.273Z,83.70
2018-11-04T18:30:17.197Z,75.97
2018-11-04T18:32:44.983Z,83.60
2018-11-04T18:35:12.084Z,78.97
2018-11-04T18:37:39.140Z,75.10
2018-11-04T18:40:09.504Z,71.70
2018-11-04T18:42:37.547Z,76.23
2018-11-04T18:45:06.041Z,67.93
2018-11-04T18:47:33.260Z,71.07
2018-11-04T18:50:00.417Z,74.13
2018-11-04T18:52:27.420Z,71.07
2018-11-04T18:54:54.457Z,72.33
2018-11-04T18:57:21.501Z,74.63
2018-11-04T18:59:48.448Z,77.73
2018-11-04T19:02:15.784Z,77.70
2018-11-04T19:04:42.931Z,82.27
2018-11-04T19:07:10.127Z,64.13
2018-11-04T19:09:37.640Z,70.90
2018-11-04T19:12:05.307Z,85.80
2018-11-04T19:14:32.583Z,71.93
2018-11-04T19:16:59.754Z,75.80
2018-11-04T19:19:26.988Z,66.53
2018-11-04T19:21:55.007Z,64.83
2018-11-04T19:24:24.830Z,79.53
2018-11-04T19:26:55.240Z,63.83
2018-11-04T19:29:24.239Z,66.57
2018-11-04T19:31:51.352Z,58.57
2018-11-04T19:34:18.562Z,66.03
2018-11-04T19:36:46.009Z,66.97
2018-11-04T19:39:13.298Z,65.70
2018-11-04T19:41:44.359Z,68.13
2018-11-04T19:44:11.475Z,59.90
2018-11-04T19:46:38.525Z,67.70
2018-11-04T19:49:05.714Z,65.93
2018-11-04T19:51:33.539Z,72.50
2018-11-04T19:54:00.660Z,62.33
2018-11-04T19:56:27.749Z,55.00
2018-11-04T19:58:54.789Z,59.17
2018-11-04T20:01:22.493Z,56.23
2018-11-04T20:03:49.531Z,52.17
2018-11-04T20:06:16.925Z,57.87
2018-11-04T20:08:49.872Z,54.67
2018-11-04T20:11:17.266Z,59.53
2018-11-04T20:13:50.028Z,52.80
2018-11-04T20:16:17.058Z,57.87
2018-11-04T20:18:50.085Z,55.10
2018-11-04T20:21:17.178Z,54.10
2018-11-04T20:23:44.287Z,60.87
2018-11-04T20:26:12.710Z,60.53
2018-11-04T20:28:39.974Z,52.73
2018-11-04T20:31:07.075Z,63.27
2018-11-04T20:33:34.089Z,57.93
2018-11-04T20:36:01.246Z,62.23
2018-11-04T20:38:34.039Z,58.30
2018-11-04T20:41:06.949Z,55.03
2018-11-04T20:43:34.003Z,59.57
2018-11-04T20:46:01.318Z,52.60
2018-11-04T20:48:34.070Z,65.80
2018-11-04T20:51:06.149Z,59.47
2018-11-04T20:53:33.606Z,57.77
2018-11-04T20:56:06.432Z,56.20
2018-11-04T20:58:33.544Z,58.97
2018-11-04T21:01:00.963Z,59.20
2018-11-04T21:03:28.012Z,62.70
2018-11-04T21:05:55.086Z,59.93
2018-11-04T21:08:25.793Z,56.60
2018-11-04T21:10:52.881Z,58.77
2018-11-04T21:13:20.048Z,55.80
2018-11-04T21:15:47.116Z,51.47
2018-11-04T21:18:14.154Z,51.50
2018-11-04T21:20:41.198Z,53.47
2018-11-04T21:23:08.362Z,52.97
2018-11-04T21:25:36.313Z,51.47
2018-11-04T21:28:03.908Z,50.43
2018-11-04T21:30:30.892Z,52.90
2018-11-04T21:32:58.132Z,58.13
2018-11-04T21:35:25.442Z,54.20
2018-11-04T21:37:54.199Z,53.90
2018-11-04T21:40:21.510Z,51.07
2018-11-04T21:42:50.161Z,55.47
2018-11-04T21:45:17.042Z,59.03
2018-11-04T21:47:44.147Z,57.33
2018-11-04T21:50:11.923Z,53.33
2018-11-04T21:52:39.064Z,59.03
2018-11-04T21:55:08.866Z,54.10
2018-11-04T21:57:36.603Z,61.77
2018-11-04T22:00:05.896Z,54.37
2018-11-04T22:02:33.021Z,54.77
2018-11-04T22:05:00.189Z,52.10
2018-11-04T22:07:27.202Z,53.33
2018-11-04T22:09:54.837Z,50.40
2018-11-04T22:12:21.806Z,55.20
2018-11-04T22:14:49.645Z,49.53
2018-11-04T22:17:16.666Z,50.00
2018-11-04T22:19:43.683Z,51.87
2018-11-04T22:22:10.685Z,56.97
2018-11-04T22:24:37.738Z,55.97
2018-11-04T22:27:04.858Z,53.60
2018-11-04T22:29:31.868Z,50.40
2018-11-04T22:31:59.693Z,54.90
2018-11-04T22:34:26.709Z,58.17
2018-11-04T22:36:53.917Z,55.13
2018-11-04T22:39:21.366Z,53.50
2018-11-04T22:41:48.665Z,57.27
2018-11-04T22:44:15.620Z,54.00
2018-11-04T22:46:43.553Z,55.17
2018-11-04T22:49:10.548Z,60.27
2018-11-04T22:51:37.748Z,61.53
2018-11-04T22:54:04.850Z,63.70
2018-11-04T22:56:31.896Z,71.10
2018-11-04T22:58:58.816Z,64.93
2018-11-04T23:01:25.856Z,60.00
2018-11-04T23:03:52.768Z,59.37
2018-11-04T23:06:19.742Z,66.43
2018-11-04T23:08:46.719Z,60.93
2018-11-04T23:11:13.773Z,63.90
2018-11-04T23:13:41.354Z,73.27
2018-11-04T23:16:08.291Z,70.37
2018-11-04T23:18:35.748Z,65.83
2018-11-04T23:21:02.612Z,62.73
2018-11-04T23:23:29.559Z,67.80
2018-11-04T23:25:56.527Z,61.87
2018-11-04T23:28:23.648Z,62.90
2018-11-04T23:30:50.607Z,70.23
2018-11-04T23:33:18.057Z,70.50
2018-11-04T23:35:45.004Z,66.23
2018-11-04T23:38:11.969Z,64.93
2018-11-04T23:40:38.943Z,66.67
2018-11-04T23:43:05.901Z,66.93
2018-11-04T23:45:32.890Z,64.03
2018-11-04T23:47:59.841Z,68.97
2018-11-04T23:50:26.759Z,65.70
2018-11-04T23:52:53.684Z,60.77
2018-11-04T23:55:20.680Z,72.30
2018-11-04T23:57:47.614Z,65.30
